createdAt,value
2022-11-25T00:00:00.821Z,30.47
2022-11-25T00:02:28.395Z,29.37
2022-11-25T00:04:56.129Z,32.23
2022-11-25T00:07:23.602Z,26.80
2022-11-25T00:09:50.942Z,29.23
2022-11-25T00:12:18.564Z,25.13
2022-11-25T00:14:45.900Z,27.77
2022-11-25T00:17:13.548Z,25.00
2022-11-25T00:19:41.158Z,26.33
2022-11-25T00:22:08.459Z,24.83
2022-11-25T00:24:36.023Z,27.23
2022-11-25T00:27:05.046Z,30.57
2022-11-25T00:29:35.157Z,27.43
2022-11-25T00:32:02.545Z,24.03
2022-11-25T00:34:33.710Z,29.83
2022-11-25T00:37:01.154Z,31.63
2022-11-25T00:39:28.885Z,30.37
2022-11-25T00:42:15.523Z,27.30
2022-11-25T00:47:12.182Z,26.83
2022-11-25T00:49:40.627Z,23.53
2022-11-25T00:52:08.185Z,27.73
2022-11-25T00:54:36.144Z,30.07
2022-11-25T00:57:03.774Z,27.77
2022-11-25T00:59:31.183Z,31.13
2022-11-25T01:01:59.917Z,27.70
2022-11-25T01:04:27.369Z,31.07
2022-11-25T01:06:56.732Z,32.03
2022-11-25T01:09:24.352Z,29.67
2022-11-25T01:11:51.782Z,33.00
2022-11-25T01:14:19.552Z,28.80
2022-11-25T01:16:48.213Z,27.97
2022-11-25T01:19:15.877Z,33.87
2022-11-25T01:21:43.264Z,36.03
2022-11-25T01:24:13.434Z,28.57
2022-11-25T01:26:40.836Z,26.30
2022-11-25T01:29:17.409Z,25.57
2022-11-25T01:31:45.482Z,22.77
2022-11-25T01:34:20.710Z,31.93
2022-11-25T01:36:48.447Z,29.03
2022-11-25T01:39:20.527Z,30.73
2022-11-25T01:41:49.584Z,31.23
2022-11-25T01:44:21.691Z,29.07
2022-11-25T01:47:01.831Z,33.43
2022-11-25T01:49:50.387Z,34.03
2022-11-25T01:52:29.671Z,33.60
2022-11-25T01:55:01.120Z,34.50
2022-11-25T01:57:34.885Z,30.00
2022-11-25T02:00:02.435Z,28.07
2022-11-25T02:02:31.396Z,30.43
2022-11-25T02:05:00.058Z,33.57
2022-11-25T02:07:41.519Z,37.87
2022-11-25T02:10:11.780Z,37.20
2022-11-25T02:12:44.506Z,32.57
2022-11-25T02:15:12.020Z,36.37
2022-11-25T02:17:39.391Z,36.60
2022-11-25T02:20:14.845Z,36.03
2022-11-25T02:23:03.829Z,35.73
2022-11-25T02:25:32.862Z,36.77
2022-11-25T02:28:10.779Z,32.87
2022-11-25T02:30:38.657Z,36.20
2022-11-25T02:33:06.729Z,31.53
2022-11-25T02:35:36.497Z,38.13
2022-11-25T02:38:22.721Z,39.97
2022-11-25T02:40:58.901Z,34.83
2022-11-25T02:43:27.241Z,34.87
2022-11-25T02:46:00.297Z,35.40
2022-11-25T02:48:46.144Z,35.97
2022-11-25T02:51:17.606Z,37.67
2022-11-25T02:53:45.302Z,37.37
2022-11-25T02:56:13.759Z,40.77
2022-11-25T02:58:41.292Z,33.90
2022-11-25T03:01:09.486Z,34.57
2022-11-25T03:03:37.300Z,40.67
2022-11-25T03:06:07.196Z,41.07
2022-11-25T03:08:35.131Z,39.00
2022-11-25T03:11:06.136Z,40.73
2022-11-25T03:13:33.880Z,39.53
2022-11-25T03:16:01.536Z,40.53
2022-11-25T03:18:29.041Z,38.33
2022-11-25T03:20:56.422Z,39.93
2022-11-25T03:23:24.134Z,37.30
2022-11-25T03:25:54.459Z,38.00
2022-11-25T03:28:22.038Z,44.10
2022-11-25T03:30:50.333Z,39.53
2022-11-25T03:33:17.669Z,34.07
2022-11-25T03:35:45.525Z,36.93
2022-11-25T03:38:13.083Z,43.00
2022-11-25T03:40:41.124Z,43.10
2022-11-25T03:43:09.159Z,40.97
2022-11-25T03:45:37.237Z,42.60
2022-11-25T03:48:05.621Z,38.53
2022-11-25T03:50:33.286Z,38.53
2022-11-25T03:53:00.879Z,43.53
2022-11-25T03:55:28.220Z,39.40
2022-11-25T03:57:55.779Z,38.43
2022-11-25T04:00:24.936Z,37.57
2022-11-25T04:02:53.287Z,37.13
2022-11-25T04:05:21.741Z,38.77
2022-11-25T04:07:52.323Z,37.37
2022-11-25T04:10:23.988Z,35.23
2022-11-25T04:12:52.518Z,43.40
2022-11-25T04:15:20.233Z,38.93
2022-11-25T04:17:48.453Z,36.50
2022-11-25T04:20:15.794Z,38.30
2022-11-25T04:22:43.411Z,33.70
2022-11-25T04:25:11.286Z,36.07
2022-11-25T04:27:38.671Z,35.30
2022-11-25T04:30:08.437Z,36.53
2022-11-25T04:32:37.815Z,38.87
2022-11-25T04:35:06.535Z,46.30
2022-11-25T04:37:34.409Z,48.23
2022-11-25T04:40:02.014Z,41.87
2022-11-25T04:42:32.923Z,42.90
2022-11-25T04:45:21.934Z,39.00
2022-11-25T04:47:49.119Z,39.77
2022-11-25T04:50:19.146Z,37.40
2022-11-25T04:52:47.467Z,38.23
2022-11-25T04:55:15.098Z,39.00
2022-11-25T04:57:43.131Z,37.37
2022-11-25T05:00:11.651Z,40.63
2022-11-25T05:02:39.458Z,34.80
2022-11-25T05:05:07.817Z,48.93
2022-11-25T05:07:35.407Z,34.07
2022-11-25T05:10:03.204Z,35.40
2022-11-25T05:12:31.338Z,35.97
2022-11-25T05:14:59.365Z,36.90
2022-11-25T05:17:28.646Z,38.77
2022-11-25T05:19:56.156Z,40.53
2022-11-25T05:22:25.771Z,38.63
2022-11-25T05:24:53.575Z,41.27
2022-11-25T05:27:21.380Z,37.47
2022-11-25T05:29:52.928Z,38.03
2022-11-25T05:32:23.885Z,37.57
2022-11-25T05:34:51.627Z,43.97
2022-11-25T05:37:24.081Z,41.80
2022-11-25T05:39:52.276Z,36.97
2022-11-25T05:42:20.751Z,36.27
2022-11-25T05:44:48.418Z,42.30
2022-11-25T05:47:16.031Z,38.43
2022-11-25T05:49:43.437Z,40.87
2022-11-25T05:52:10.876Z,38.17
2022-11-25T05:54:39.348Z,40.87
2022-11-25T05:57:06.945Z,37.93
2022-11-25T05:59:39.142Z,42.07
2022-11-25T06:02:07.053Z,36.70
2022-11-25T06:04:35.166Z,43.93
2022-11-25T06:07:03.197Z,40.00
2022-11-25T06:09:30.717Z,35.47
2022-11-25T06:11:58.438Z,38.90
2022-11-25T06:14:25.919Z,37.13
2022-11-25T06:16:53.506Z,33.77
2022-11-25T06:19:21.946Z,33.67
2022-11-25T06:21:49.267Z,34.33
2022-11-25T06:24:16.669Z,41.60
2022-11-25T06:26:44.651Z,39.37
2022-11-25T06:29:12.013Z,37.83
2022-11-25T06:31:39.870Z,38.13
2022-11-25T06:34:09.341Z,35.60
2022-11-25T06:36:36.952Z,38.93
2022-11-25T06:39:04.428Z,36.20
2022-11-25T06:41:32.050Z,35.93
2022-11-25T06:43:59.399Z,35.50
2022-11-25T06:46:26.770Z,35.10
2022-11-25T06:48:54.398Z,39.57
2022-11-25T06:51:21.780Z,37.57
2022-11-25T06:53:49.122Z,37.50
2022-11-25T06:56:23.673Z,36.30
2022-11-25T06:58:51.273Z,39.10
2022-11-25T07:01:19.985Z,35.67
2022-11-25T07:03:48.863Z,39.57
2022-11-25T07:06:16.515Z,33.73
2022-11-25T07:08:44.330Z,36.57
2022-11-25T07:11:23.478Z,30.33
2022-11-25T07:13:56.273Z,33.60
2022-11-25T07:16:23.827Z,35.93
2022-11-25T07:18:51.557Z,44.73
2022-11-25T07:21:20.646Z,34.53
2022-11-25T07:23:48.075Z,36.97
2022-11-25T07:26:23.531Z,30.70
2022-11-25T07:28:52.271Z,42.13
2022-11-25T07:31:34.572Z,35.33
2022-11-25T07:34:12.419Z,33.83
2022-11-25T07:36:40.228Z,36.33
2022-11-25T07:39:09.327Z,37.33
2022-11-25T07:41:36.679Z,40.20
2022-11-25T07:44:05.238Z,39.93
2022-11-25T07:46:37.694Z,36.33
2022-11-25T07:49:26.437Z,34.13
2022-11-25T07:51:56.665Z,38.63
2022-11-25T07:54:26.240Z,41.10
2022-11-25T07:56:54.530Z,38.87
2022-11-25T07:59:22.349Z,41.03
2022-11-25T08:01:51.060Z,37.50
2022-11-25T08:04:20.789Z,35.43
2022-11-25T08:06:49.852Z,38.37
2022-11-25T08:09:19.312Z,39.47
2022-11-25T08:11:47.561Z,34.60
2022-11-25T08:14:15.232Z,33.23
2022-11-25T08:16:42.567Z,34.03
2022-11-25T08:19:13.781Z,32.03
2022-11-25T08:21:41.553Z,36.97
2022-11-25T08:24:13.312Z,33.60
2022-11-25T08:26:40.926Z,32.73
2022-11-25T08:29:09.319Z,35.53
2022-11-25T08:31:37.955Z,36.83
2022-11-25T08:34:06.124Z,37.17
2022-11-25T08:36:48.664Z,32.47
2022-11-25T08:39:44.428Z,34.93
2022-11-25T08:42:04.980Z,34.53
2022-11-25T08:44:32.600Z,33.33
2022-11-25T08:47:00.018Z,33.90
2022-11-25T08:49:29.241Z,31.43
2022-11-25T08:51:56.929Z,31.20
2022-11-25T08:54:24.285Z,35.20
2022-11-25T08:56:51.622Z,37.17
2022-11-25T08:59:19.204Z,34.93
2022-11-25T09:01:46.621Z,33.23
2022-11-25T09:04:14.022Z,34.53
2022-11-25T09:06:41.616Z,34.93
2022-11-25T09:09:08.954Z,38.13
2022-11-25T09:11:36.385Z,32.20
2022-11-25T09:14:04.162Z,36.30
2022-11-25T09:16:31.619Z,33.17
2022-11-25T09:19:00.015Z,31.90
2022-11-25T09:21:27.678Z,30.63
2022-11-25T09:23:55.064Z,38.43
2022-11-25T09:26:26.903Z,31.53
2022-11-25T09:28:54.717Z,34.50
2022-11-25T09:31:22.511Z,33.53
2022-11-25T09:33:49.973Z,30.00
2022-11-25T09:36:18.164Z,26.70
2022-11-25T09:38:45.619Z,31.53
2022-11-25T09:41:45.872Z,22.77
2022-11-25T09:44:44.293Z,25.23
2022-11-25T09:47:45.240Z,24.87
2022-11-25T09:50:23.914Z,29.83
2022-11-25T09:53:25.047Z,30.05
2022-11-25T09:56:00.046Z,29.33
2022-11-25T09:58:37.347Z,26.95
2022-11-25T10:01:14.371Z,25.62
2022-11-25T10:03:46.263Z,27.40
2022-11-25T10:06:17.999Z,26.33
2022-11-25T10:08:59.008Z,27.50
2022-11-25T10:11:44.783Z,25.80
2022-11-25T10:14:21.571Z,24.45
2022-11-25T10:17:11.575Z,23.42
2022-11-25T10:20:11.832Z,24.20
2022-11-25T10:22:46.773Z,30.47
2022-11-25T10:25:17.127Z,31.47
2022-11-25T10:28:00.200Z,26.73
2022-11-25T10:30:34.451Z,27.93
2022-11-25T10:33:21.142Z,26.57
2022-11-25T10:35:51.827Z,25.77
2022-11-25T10:38:25.102Z,22.90
2022-11-25T10:40:52.775Z,24.77
2022-11-25T10:43:20.225Z,24.27
2022-11-25T10:45:53.236Z,25.80
2022-11-25T10:48:44.204Z,23.92
2022-11-25T10:51:32.279Z,27.67
2022-11-25T10:54:39.018Z,24.05
2022-11-25T10:57:17.867Z,25.10
2022-11-25T10:59:56.149Z,23.67
2022-11-25T11:02:30.979Z,28.00
2022-11-25T11:05:11.088Z,29.23
2022-11-25T11:07:42.998Z,29.33
2022-11-25T11:10:26.254Z,27.60
2022-11-25T11:13:03.816Z,27.02
2022-11-25T11:15:41.372Z,27.92
2022-11-25T11:18:25.750Z,23.83
2022-11-25T11:20:55.540Z,31.33
2022-11-25T11:23:23.029Z,26.80
2022-11-25T11:26:03.592Z,30.02
2022-11-25T11:28:38.966Z,27.67
2022-11-25T11:31:17.512Z,32.63
2022-11-25T11:33:48.370Z,28.10
2022-11-25T11:36:53.085Z,26.48
2022-11-25T11:40:00.253Z,27.27
2022-11-25T11:42:38.446Z,25.30
2022-11-25T11:45:06.286Z,26.20
2022-11-25T11:47:52.433Z,28.20
2022-11-25T11:52:55.324Z,21.92
2022-11-25T11:56:00.299Z,24.58
2022-11-25T11:58:52.009Z,20.08
2022-11-25T12:01:56.940Z,27.30
2022-11-25T12:04:28.525Z,22.97
2022-11-25T12:07:22.986Z,24.80
2022-11-25T12:09:57.090Z,24.48
2022-11-25T12:12:33.172Z,23.62
2022-11-25T12:15:21.175Z,22.58
2022-11-25T12:18:23.595Z,22.37
2022-11-25T12:21:03.019Z,22.87
2022-11-25T12:23:36.119Z,23.08
2022-11-25T12:26:08.184Z,21.95
2022-11-25T12:28:43.536Z,21.70
2022-11-25T12:31:20.738Z,17.40
2022-11-25T12:34:04.403Z,22.20
2022-11-25T12:36:40.486Z,23.02
2022-11-25T12:39:33.023Z,26.37
2022-11-25T12:42:06.104Z,26.33
2022-11-25T12:44:59.594Z,22.33
2022-11-25T12:47:27.646Z,25.48
2022-11-25T12:49:55.418Z,22.67
2022-11-25T12:52:42.825Z,23.35
2022-11-25T12:55:27.912Z,19.85
2022-11-25T12:58:11.753Z,18.70
2022-11-25T13:01:18.420Z,21.08
2022-11-25T13:04:07.468Z,17.70
2022-11-25T13:06:53.959Z,20.52
2022-11-25T13:10:01.923Z,20.77
2022-11-25T13:12:48.365Z,15.65
2022-11-25T13:15:38.184Z,15.95
2022-11-25T13:18:11.402Z,21.02
2022-11-25T13:20:44.204Z,14.05
2022-11-25T13:23:13.139Z,20.23
2022-11-25T13:25:41.383Z,25.60
2022-11-25T13:28:34.123Z,32.60
2022-11-25T13:31:14.093Z,28.80
2022-11-25T13:33:44.778Z,23.10
2022-11-25T13:36:16.496Z,20.98
2022-11-25T13:38:50.050Z,17.62
2022-11-25T13:41:22.921Z,21.52
2022-11-25T13:44:04.361Z,16.05
2022-11-25T13:46:39.623Z,18.95
2022-11-25T13:49:28.824Z,17.92
2022-11-25T13:52:11.777Z,17.80
2022-11-25T13:54:49.761Z,16.52
2022-11-25T13:57:19.888Z,20.77
2022-11-25T13:59:55.580Z,21.60
2022-11-25T14:02:29.089Z,22.48
2022-11-25T14:05:30.553Z,17.52
2022-11-25T14:08:20.986Z,19.00
2022-11-25T14:11:37.628Z,19.10
2022-11-25T14:14:55.975Z,21.80
2022-11-25T14:17:24.151Z,23.80
2022-11-25T14:20:05.059Z,20.62
2022-11-25T14:23:09.796Z,16.37
2022-11-25T14:25:56.408Z,20.60
2022-11-25T14:28:42.001Z,38.30
2022-11-25T14:31:11.251Z,31.95
2022-11-25T14:34:00.310Z,37.03
2022-11-25T14:36:30.883Z,36.03
2022-11-25T14:39:00.888Z,40.38
2022-11-25T14:41:33.229Z,43.38
2022-11-25T14:44:04.035Z,51.10
2022-11-25T14:46:31.501Z,40.80
2022-11-25T14:49:00.289Z,29.33
2022-11-25T14:51:33.515Z,28.80
2022-11-25T14:54:00.855Z,32.05
2022-11-25T14:56:34.163Z,44.65
2022-11-25T14:59:01.504Z,36.08
2022-11-25T15:01:30.523Z,42.47
2022-11-25T15:04:05.059Z,48.92
2022-11-25T15:06:36.687Z,33.35
2022-11-25T15:09:04.206Z,37.15
2022-11-25T15:11:32.683Z,32.72
2022-11-25T15:14:02.980Z,27.27
2022-11-25T15:16:38.203Z,30.48
2022-11-25T15:19:06.909Z,25.65
2022-11-25T15:21:48.385Z,25.52
2022-11-25T15:24:28.197Z,24.73
2022-11-25T15:27:05.128Z,28.80
2022-11-25T15:29:36.379Z,29.23
2022-11-25T15:32:03.923Z,33.63
2022-11-25T15:34:31.356Z,31.48
2022-11-25T15:37:01.182Z,34.45
2022-11-25T15:39:29.487Z,32.45
2022-11-25T15:42:07.470Z,34.35
2022-11-25T15:44:38.624Z,36.50
2022-11-25T15:47:25.447Z,31.23
2022-11-25T15:50:02.513Z,36.83
2022-11-25T15:52:31.016Z,35.60
2022-11-25T15:55:31.875Z,36.90
2022-11-25T15:58:03.327Z,37.85
2022-11-25T16:00:30.877Z,34.33
2022-11-25T16:02:58.535Z,34.10
2022-11-25T16:05:31.860Z,36.20
2022-11-25T16:08:23.336Z,37.03
2022-11-25T16:10:55.317Z,38.10
2022-11-25T16:13:23.126Z,32.60
2022-11-25T16:16:12.175Z,31.67
2022-11-25T16:18:55.931Z,34.37
2022-11-25T16:21:30.709Z,37.17
2022-11-25T16:24:06.113Z,33.65
2022-11-25T16:26:38.156Z,36.13
2022-11-25T16:29:14.784Z,32.80
2022-11-25T16:31:42.185Z,33.05
2022-11-25T16:34:13.681Z,32.10
2022-11-25T16:36:41.312Z,39.20
2022-11-25T16:39:09.130Z,37.50
2022-11-25T16:41:36.737Z,49.47
2022-11-25T16:44:21.238Z,66.10
2022-11-25T16:46:48.954Z,72.73
2022-11-25T16:49:17.365Z,85.37
2022-11-25T16:51:44.704Z,83.47
2022-11-25T16:54:16.269Z,96.30
2022-11-25T16:56:43.631Z,93.73
2022-11-25T16:59:25.561Z,78.47
2022-11-25T17:01:53.432Z,82.90
2022-11-25T17:04:21.280Z,71.57
2022-11-25T17:07:16.391Z,77.07
2022-11-25T17:09:36.609Z,70.07
2022-11-25T17:12:04.595Z,58.53
2022-11-25T17:14:33.573Z,66.60
2022-11-25T17:17:01.436Z,61.67
2022-11-25T17:19:29.330Z,51.67
2022-11-25T17:21:56.761Z,52.43
2022-11-25T17:24:24.755Z,49.57
2022-11-25T17:27:00.451Z,46.40
2022-11-25T17:29:33.007Z,29.05
2022-11-25T17:32:00.433Z,41.37
2022-11-25T17:34:28.080Z,40.90
2022-11-25T17:36:55.452Z,36.17
2022-11-25T17:39:22.835Z,43.40
2022-11-25T17:41:50.928Z,36.00
2022-11-25T17:44:28.503Z,37.10
2022-11-25T17:46:57.283Z,43.20
2022-11-25T17:49:24.763Z,54.37
2022-11-25T17:51:52.109Z,45.20
2022-11-25T17:54:19.721Z,51.67
2022-11-25T17:56:52.097Z,57.83
2022-11-25T17:59:30.434Z,46.17
2022-11-25T18:01:59.205Z,46.47
2022-11-25T18:04:29.858Z,39.10
2022-11-25T18:06:57.234Z,44.03
2022-11-25T18:09:24.583Z,50.63
2022-11-25T18:11:53.867Z,40.13
2022-11-25T18:14:34.460Z,43.83
2022-11-25T18:17:03.808Z,51.60
2022-11-25T18:19:31.678Z,46.00
2022-11-25T18:22:15.601Z,81.60
2022-11-25T18:24:43.250Z,179.57
2022-11-25T18:27:32.088Z,163.17
2022-11-25T18:30:02.532Z,149.93
2022-11-25T18:32:30.562Z,97.03
2022-11-25T18:34:57.901Z,63.37
2022-11-25T18:37:25.576Z,75.30
2022-11-25T18:39:52.939Z,54.07
2022-11-25T18:42:27.073Z,54.43
2022-11-25T18:44:55.178Z,77.43
2022-11-25T18:47:22.536Z,68.97
2022-11-25T18:49:55.089Z,75.70
2022-11-25T18:52:24.664Z,66.63
2022-11-25T18:54:52.172Z,61.33
2022-11-25T18:57:19.507Z,53.93
2022-11-25T18:59:55.975Z,52.83
2022-11-25T19:02:34.776Z,63.23
2022-11-25T19:05:02.843Z,54.40
2022-11-25T19:07:30.304Z,56.53
2022-11-25T19:09:57.649Z,57.80
2022-11-25T19:12:25.294Z,58.40
2022-11-25T19:14:52.689Z,63.67
2022-11-25T19:17:21.436Z,59.63
2022-11-25T19:19:49.068Z,58.77
2022-11-25T19:22:18.040Z,61.63
2022-11-25T19:24:46.150Z,64.90
2022-11-25T19:27:23.356Z,62.53
2022-11-25T19:29:50.916Z,71.87
2022-11-25T19:32:21.146Z,65.20
2022-11-25T19:34:53.141Z,58.37
2022-11-25T19:37:21.572Z,84.17
2022-11-25T19:39:52.111Z,77.37
2022-11-25T19:42:19.505Z,75.53
2022-11-25T19:44:47.149Z,76.20
2022-11-25T19:47:24.771Z,81.57
2022-11-25T19:49:57.212Z,79.03
2022-11-25T19:52:30.717Z,76.40
2022-11-25T19:54:58.313Z,69.70
2022-11-25T19:57:25.655Z,69.07
2022-11-25T19:59:52.972Z,66.53
2022-11-25T20:02:22.049Z,62.67
2022-11-25T20:04:51.119Z,63.27
2022-11-25T20:07:19.451Z,69.13
2022-11-25T20:09:47.551Z,73.70
2022-11-25T20:12:21.708Z,60.90
2022-11-25T20:14:49.158Z,67.07
2022-11-25T20:17:27.456Z,71.43
2022-11-25T20:19:57.131Z,63.03
2022-11-25T20:22:26.951Z,64.00
2022-11-25T20:24:54.239Z,60.10
2022-11-25T20:27:24.398Z,61.33
2022-11-25T20:29:52.048Z,64.17
2022-11-25T20:32:28.113Z,56.63
2022-11-25T20:34:58.652Z,57.10
2022-11-25T20:37:26.438Z,55.93
2022-11-25T20:39:55.346Z,55.93
2022-11-25T20:42:23.032Z,55.47
2022-11-25T20:44:55.941Z,51.90
2022-11-25T20:47:26.451Z,53.00
2022-11-25T20:49:53.996Z,51.83
2022-11-25T20:52:28.334Z,54.80
2022-11-25T20:54:56.169Z,57.60
2022-11-25T20:57:23.775Z,55.23
2022-11-25T20:59:51.241Z,55.37
2022-11-25T21:02:21.535Z,51.83
2022-11-25T21:04:49.089Z,53.10
2022-11-25T21:07:17.886Z,52.77
2022-11-25T21:09:45.583Z,52.33
2022-11-25T21:12:19.439Z,54.53
2022-11-25T21:14:47.479Z,48.87
2022-11-25T21:17:14.930Z,61.57
2022-11-25T21:19:42.268Z,58.97
2022-11-25T21:22:22.403Z,76.77
2022-11-25T21:24:49.764Z,80.87
2022-11-25T21:27:17.399Z,77.17
2022-11-25T21:29:44.776Z,74.83
2022-11-25T21:32:22.615Z,71.43
2022-11-25T21:34:50.236Z,67.70
2022-11-25T21:37:18.226Z,68.77
2022-11-25T21:39:45.533Z,67.20
2022-11-25T21:42:17.777Z,81.63
2022-11-25T21:44:45.103Z,78.43
2022-11-25T21:47:23.456Z,71.63
2022-11-25T21:49:51.118Z,75.13
2022-11-25T21:52:18.837Z,89.47
2022-11-25T21:54:46.196Z,96.40
2022-11-25T21:57:26.194Z,113.40
2022-11-25T21:59:53.923Z,118.73
2022-11-25T22:02:22.352Z,117.77
2022-11-25T22:04:50.210Z,102.97
2022-11-25T22:07:17.643Z,125.17
2022-11-25T22:09:45.012Z,190.60
2022-11-25T22:12:30.571Z,113.73
2022-11-25T22:14:58.274Z,119.67
2022-11-25T22:17:26.152Z,155.43
2022-11-25T22:19:53.558Z,167.43
2022-11-25T22:22:20.981Z,184.07
2022-11-25T22:24:48.556Z,196.77
2022-11-25T22:27:22.215Z,121.90
2022-11-25T22:29:49.826Z,219.10
2022-11-25T22:32:17.344Z,270.37
2022-11-25T22:34:44.701Z,292.93
2022-11-25T22:37:17.036Z,65.83
2022-11-25T22:39:44.385Z,164.30
2022-11-25T22:42:28.658Z,216.57
2022-11-25T22:44:56.327Z,204.07
2022-11-25T22:47:37.744Z,279.87
2022-11-25T22:50:12.384Z,140.33
2022-11-25T22:52:40.006Z,235.53
2022-11-25T22:55:18.207Z,166.87
2022-11-25T22:57:46.473Z,232.17
2022-11-25T23:00:25.347Z,197.30
2022-11-25T23:02:55.155Z,253.23
2022-11-25T23:05:32.190Z,283.73
2022-11-25T23:08:18.091Z,285.23
2022-11-25T23:10:45.522Z,164.67
2022-11-25T23:13:14.510Z,165.47
2022-11-25T23:15:44.571Z,254.97
2022-11-25T23:18:14.542Z,208.10
2022-11-25T23:20:42.439Z,83.10
2022-11-25T23:23:15.839Z,267.50
2022-11-25T23:25:43.680Z,212.63
2022-11-25T23:28:11.088Z,253.23
2022-11-25T23:30:38.765Z,323.13
2022-11-25T23:33:09.281Z,296.47
2022-11-25T23:35:37.260Z,267.47
2022-11-25T23:38:07.933Z,228.97
2022-11-25T23:40:35.545Z,167.07
2022-11-25T23:43:03.070Z,273.77
2022-11-25T23:45:30.493Z,205.30
2022-11-25T23:47:58.108Z,214.90
2022-11-25T23:50:25.260Z,179.77
2022-11-25T23:52:52.839Z,98.43
2022-11-25T23:55:23.901Z,273.20
2022-11-25T23:57:51.240Z,171.90
